sensor_id;sensor_type;location;lat;lon;timestamp;P1;durP1;ratioP1;P2;durP2;ratioP2
61840;SDS011;47773;53.174;6.614;2023-04-15T00:00:56;13.88;;;4.35;;
61840;SDS011;47773;53.174;6.614;2023-04-15T00:03:23;8.27;;;3.42;;
61840;SDS011;47773;53.174;6.614;2023-04-15T00:05:49;10.88;;;4.90;;
61840;SDS011;47773;53.174;6.614;2023-04-15T00:08:16;8.70;;;4.32;;
61840;SDS011;47773;53.174;6.614;2023-04-15T00:10:43;11.15;;;4.40;;
61840;SDS011;47773;53.174;6.614;2023-04-15T00:13:10;10.73;;;4.28;;
61840;SDS011;47773;53.174;6.614;2023-04-15T00:15:36;13.02;;;5.18;;
61840;SDS011;47773;53.174;6.614;2023-04-15T00:18:02;13.50;;;4.88;;
61840;SDS011;47773;53.174;6.614;2023-04-15T00:20:28;10.60;;;4.97;;
61840;SDS011;47773;53.174;6.614;2023-04-15T00:22:54;13.20;;;5.07;;
61840;SDS011;47773;53.174;6.614;2023-04-15T00:25:19;16.90;;;5.55;;
61840;SDS011;47773;53.174;6.614;2023-04-15T00:27:45;9.73;;;5.25;;
61840;SDS011;47773;53.174;6.614;2023-04-15T00:30:10;11.52;;;5.45;;
61840;SDS011;47773;53.174;6.614;2023-04-15T00:32:36;14.27;;;6.00;;
61840;SDS011;47773;53.174;6.614;2023-04-15T00:35:02;13.40;;;6.03;;
61840;SDS011;47773;53.174;6.614;2023-04-15T00:37:28;12.52;;;6.53;;
61840;SDS011;47773;53.174;6.614;2023-04-15T00:39:54;12.55;;;6.10;;
61840;SDS011;47773;53.174;6.614;2023-04-15T00:42:20;11.63;;;5.57;;
61840;SDS011;47773;53.174;6.614;2023-04-15T00:44:46;14.30;;;5.72;;
61840;SDS011;47773;53.174;6.614;2023-04-15T00:47:12;13.43;;;6.18;;
61840;SDS011;47773;53.174;6.614;2023-04-15T00:49:40;12.60;;;6.45;;
61840;SDS011;47773;53.174;6.614;2023-04-15T00:52:06;9.98;;;6.35;;
61840;SDS011;47773;53.174;6.614;2023-04-15T00:54:33;10.73;;;5.85;;
61840;SDS011;47773;53.174;6.614;2023-04-15T00:56:58;10.20;;;5.82;;
61840;SDS011;47773;53.174;6.614;2023-04-15T00:59:24;11.30;;;6.35;;
61840;SDS011;47773;53.174;6.614;2023-04-15T01:01:51;16.15;;;6.93;;
61840;SDS011;47773;53.174;6.614;2023-04-15T01:04:17;13.55;;;6.05;;
61840;SDS011;47773;53.174;6.614;2023-04-15T01:06:42;13.45;;;6.68;;
61840;SDS011;47773;53.174;6.614;2023-04-15T01:09:08;14.05;;;6.88;;
61840;SDS011;47773;53.174;6.614;2023-04-15T01:11:34;11.70;;;6.28;;
61840;SDS011;47773;53.174;6.614;2023-04-15T01:14:00;10.13;;;6.22;;
61840;SDS011;47773;53.174;6.614;2023-04-15T01:16:26;12.50;;;6.30;;
61840;SDS011;47773;53.174;6.614;2023-04-15T01:18:52;15.23;;;6.88;;
61840;SDS011;47773;53.174;6.614;2023-04-15T01:21:18;9.68;;;6.57;;
61840;SDS011;47773;53.174;6.614;2023-04-15T01:23:45;14.02;;;6.75;;
61840;SDS011;47773;53.174;6.614;2023-04-15T01:26:12;10.50;;;6.47;;
61840;SDS011;47773;53.174;6.614;2023-04-15T01:28:38;10.98;;;5.35;;
61840;SDS011;47773;53.174;6.614;2023-04-15T01:31:05;14.13;;;6.78;;
61840;SDS011;47773;53.174;6.614;2023-04-15T01:33:32;10.32;;;6.15;;
61840;SDS011;47773;53.174;6.614;2023-04-15T01:35:57;11.32;;;6.55;;
61840;SDS011;47773;53.174;6.614;2023-04-15T01:38:24;12.38;;;6.38;;
61840;SDS011;47773;53.174;6.614;2023-04-15T01:40:50;13.82;;;6.35;;
61840;SDS011;47773;53.174;6.614;2023-04-15T01:43:16;10.68;;;5.75;;
61840;SDS011;47773;53.174;6.614;2023-04-15T01:45:43;12.50;;;6.35;;
61840;SDS011;47773;53.174;6.614;2023-04-15T01:48:08;9.25;;;6.20;;
61840;SDS011;47773;53.174;6.614;2023-04-15T01:50:34;11.65;;;6.32;;
61840;SDS011;47773;53.174;6.614;2023-04-15T01:53:02;11.85;;;6.55;;
61840;SDS011;47773;53.174;6.614;2023-04-15T01:55:28;12.25;;;6.43;;
61840;SDS011;47773;53.174;6.614;2023-04-15T01:57:54;13.07;;;6.32;;
61840;SDS011;47773;53.174;6.614;2023-04-15T02:00:20;13.77;;;7.18;;
61840;SDS011;47773;53.174;6.614;2023-04-15T02:02:47;13.48;;;6.47;;
61840;SDS011;47773;53.174;6.614;2023-04-15T02:05:12;11.07;;;6.63;;
61840;SDS011;47773;53.174;6.614;2023-04-15T02:07:38;11.98;;;6.25;;
61840;SDS011;47773;53.174;6.614;2023-04-15T02:10:04;14.45;;;7.35;;
61840;SDS011;47773;53.174;6.614;2023-04-15T02:12:30;10.57;;;6.35;;
61840;SDS011;47773;53.174;6.614;2023-04-15T02:14:55;15.88;;;6.50;;
61840;SDS011;47773;53.174;6.614;2023-04-15T02:17:21;13.55;;;7.15;;
61840;SDS011;47773;53.174;6.614;2023-04-15T02:19:47;13.65;;;7.28;;
61840;SDS011;47773;53.174;6.614;2023-04-15T02:22:13;12.93;;;6.90;;
61840;SDS011;47773;53.174;6.614;2023-04-15T02:24:42;12.65;;;7.60;;
61840;SDS011;47773;53.174;6.614;2023-04-15T02:27:10;11.85;;;7.35;;
61840;SDS011;47773;53.174;6.614;2023-04-15T02:29:39;12.40;;;7.03;;
61840;SDS011;47773;53.174;6.614;2023-04-15T02:32:05;10.18;;;6.30;;
61840;SDS011;47773;53.174;6.614;2023-04-15T02:34:31;13.05;;;6.75;;
61840;SDS011;47773;53.174;6.614;2023-04-15T02:36:57;9.90;;;6.55;;
61840;SDS011;47773;53.174;6.614;2023-04-15T02:39:23;10.60;;;6.72;;
61840;SDS011;47773;53.174;6.614;2023-04-15T02:41:49;11.73;;;7.05;;
61840;SDS011;47773;53.174;6.614;2023-04-15T02:44:17;10.52;;;6.55;;
61840;SDS011;47773;53.174;6.614;2023-04-15T02:46:47;15.13;;;7.40;;
61840;SDS011;47773;53.174;6.614;2023-04-15T02:49:16;12.02;;;7.13;;
61840;SDS011;47773;53.174;6.614;2023-04-15T02:51:45;14.98;;;8.25;;
61840;SDS011;47773;53.174;6.614;2023-04-15T02:54:13;14.35;;;7.80;;
61840;SDS011;47773;53.174;6.614;2023-04-15T02:56:47;15.05;;;7.50;;
61840;SDS011;47773;53.174;6.614;2023-04-15T02:59:12;13.68;;;7.90;;
61840;SDS011;47773;53.174;6.614;2023-04-15T03:01:38;15.15;;;7.60;;
61840;SDS011;47773;53.174;6.614;2023-04-15T03:04:04;13.80;;;7.85;;
61840;SDS011;47773;53.174;6.614;2023-04-15T03:06:31;16.98;;;8.30;;
61840;SDS011;47773;53.174;6.614;2023-04-15T03:08:57;15.95;;;8.38;;
61840;SDS011;47773;53.174;6.614;2023-04-15T03:11:24;12.95;;;8.00;;
61840;SDS011;47773;53.174;6.614;2023-04-15T03:13:51;14.20;;;8.20;;
61840;SDS011;47773;53.174;6.614;2023-04-15T03:16:17;14.73;;;8.38;;
61840;SDS011;47773;53.174;6.614;2023-04-15T03:18:42;13.90;;;8.25;;
61840;SDS011;47773;53.174;6.614;2023-04-15T03:21:08;15.70;;;9.45;;
61840;SDS011;47773;53.174;6.614;2023-04-15T03:23:33;14.90;;;9.43;;
61840;SDS011;47773;53.174;6.614;2023-04-15T03:26:02;18.65;;;9.18;;
61840;SDS011;47773;53.174;6.614;2023-04-15T03:28:29;15.15;;;8.32;;
61840;SDS011;47773;53.174;6.614;2023-04-15T03:30:55;16.58;;;9.25;;
61840;SDS011;47773;53.174;6.614;2023-04-15T03:33:21;15.05;;;8.32;;
61840;SDS011;47773;53.174;6.614;2023-04-15T03:35:46;14.60;;;8.32;;
61840;SDS011;47773;53.174;6.614;2023-04-15T03:38:12;13.98;;;8.63;;
61840;SDS011;47773;53.174;6.614;2023-04-15T03:40:39;13.65;;;8.32;;
61840;SDS011;47773;53.174;6.614;2023-04-15T03:43:06;15.50;;;8.88;;
61840;SDS011;47773;53.174;6.614;2023-04-15T03:45:32;17.73;;;8.82;;
61840;SDS011;47773;53.174;6.614;2023-04-15T03:47:57;16.20;;;8.63;;
61840;SDS011;47773;53.174;6.614;2023-04-15T03:50:23;15.43;;;8.68;;
61840;SDS011;47773;53.174;6.614;2023-04-15T03:52:49;14.45;;;8.43;;
61840;SDS011;47773;53.174;6.614;2023-04-15T03:55:14;14.55;;;8.98;;
61840;SDS011;47773;53.174;6.614;2023-04-15T03:57:40;16.25;;;8.50;;
61840;SDS011;47773;53.174;6.614;2023-04-15T04:00:06;18.27;;;8.98;;
61840;SDS011;47773;53.174;6.614;2023-04-15T04:02:34;13.85;;;7.90;;
61840;SDS011;47773;53.174;6.614;2023-04-15T04:05:00;13.90;;;8.38;;
61840;SDS011;47773;53.174;6.614;2023-04-15T04:07:26;13.95;;;7.97;;
61840;SDS011;47773;53.174;6.614;2023-04-15T04:09:51;14.63;;;7.68;;
61840;SDS011;47773;53.174;6.614;2023-04-15T04:12:17;13.95;;;8.90;;
61840;SDS011;47773;53.174;6.614;2023-04-15T04:14:42;13.07;;;7.95;;
61840;SDS011;47773;53.174;6.614;2023-04-15T04:17:08;14.98;;;8.65;;
61840;SDS011;47773;53.174;6.614;2023-04-15T04:19:34;17.70;;;8.68;;
61840;SDS011;47773;53.174;6.614;2023-04-15T04:22:00;16.10;;;8.57;;
61840;SDS011;47773;53.174;6.614;2023-04-15T04:24:26;14.25;;;8.68;;
61840;SDS011;47773;53.174;6.614;2023-04-15T04:26:51;15.20;;;8.90;;
61840;SDS011;47773;53.174;6.614;2023-04-15T04:29:18;16.50;;;8.82;;
61840;SDS011;47773;53.174;6.614;2023-04-15T04:31:43;15.73;;;9.45;;
61840;SDS011;47773;53.174;6.614;2023-04-15T04:34:09;14.38;;;9.18;;
61840;SDS011;47773;53.174;6.614;2023-04-15T04:36:35;18.00;;;10.00;;
61840;SDS011;47773;53.174;6.614;2023-04-15T04:39:01;14.73;;;10.05;;
61840;SDS011;47773;53.174;6.614;2023-04-15T04:41:26;15.90;;;10.05;;
61840;SDS011;47773;53.174;6.614;2023-04-15T04:43:52;15.38;;;9.63;;
61840;SDS011;47773;53.174;6.614;2023-04-15T04:46:18;15.00;;;10.02;;
61840;SDS011;47773;53.174;6.614;2023-04-15T04:48:43;21.08;;;11.23;;
61840;SDS011;47773;53.174;6.614;2023-04-15T04:51:09;18.30;;;11.52;;
61840;SDS011;47773;53.174;6.614;2023-04-15T04:53:35;18.23;;;11.20;;
61840;SDS011;47773;53.174;6.614;2023-04-15T04:56:01;19.55;;;11.07;;
61840;SDS011;47773;53.174;6.614;2023-04-15T04:58:27;19.98;;;11.45;;
61840;SDS011;47773;53.174;6.614;2023-04-15T05:00:53;19.73;;;12.48;;
61840;SDS011;47773;53.174;6.614;2023-04-15T05:03:20;23.35;;;13.85;;
61840;SDS011;47773;53.174;6.614;2023-04-15T05:05:45;21.30;;;14.35;;
61840;SDS011;47773;53.174;6.614;2023-04-15T05:08:13;23.60;;;15.07;;
61840;SDS011;47773;53.174;6.614;2023-04-15T05:10:39;24.27;;;14.63;;
61840;SDS011;47773;53.174;6.614;2023-04-15T05:13:05;24.40;;;16.58;;
61840;SDS011;47773;53.174;6.614;2023-04-15T05:15:31;30.10;;;18.98;;
61840;SDS011;47773;53.174;6.614;2023-04-15T05:17:58;30.08;;;20.13;;
61840;SDS011;47773;53.174;6.614;2023-04-15T05:20:24;28.67;;;18.73;;
61840;SDS011;47773;53.174;6.614;2023-04-15T05:22:50;26.83;;;17.25;;
61840;SDS011;47773;53.174;6.614;2023-04-15T05:25:16;28.35;;;17.65;;
61840;SDS011;47773;53.174;6.614;2023-04-15T05:27:42;25.23;;;17.05;;
61840;SDS011;47773;53.174;6.614;2023-04-15T05:30:08;24.20;;;16.40;;
61840;SDS011;47773;53.174;6.614;2023-04-15T05:32:34;22.98;;;15.40;;
61840;SDS011;47773;53.174;6.614;2023-04-15T05:35:00;27.17;;;15.68;;
61840;SDS011;47773;53.174;6.614;2023-04-15T05:37:25;25.27;;;14.23;;
61840;SDS011;47773;53.174;6.614;2023-04-15T05:39:51;19.25;;;12.48;;
61840;SDS011;47773;53.174;6.614;2023-04-15T05:42:17;20.77;;;12.18;;
61840;SDS011;47773;53.174;6.614;2023-04-15T05:44:42;24.38;;;12.85;;
61840;SDS011;47773;53.174;6.614;2023-04-15T05:47:08;17.70;;;11.68;;
61840;SDS011;47773;53.174;6.614;2023-04-15T05:49:34;16.70;;;11.02;;
61840;SDS011;47773;53.174;6.614;2023-04-15T05:52:00;16.75;;;9.82;;
61840;SDS011;47773;53.174;6.614;2023-04-15T05:54:26;18.20;;;10.52;;
61840;SDS011;47773;53.174;6.614;2023-04-15T05:56:52;18.13;;;10.98;;
61840;SDS011;47773;53.174;6.614;2023-04-15T05:59:18;17.58;;;10.73;;
61840;SDS011;47773;53.174;6.614;2023-04-15T06:01:43;21.13;;;12.35;;
61840;SDS011;47773;53.174;6.614;2023-04-15T06:04:09;18.80;;;12.05;;
61840;SDS011;47773;53.174;6.614;2023-04-15T06:06:35;19.95;;;12.52;;
61840;SDS011;47773;53.174;6.614;2023-04-15T06:09:02;19.90;;;12.10;;
61840;SDS011;47773;53.174;6.614;2023-04-15T06:11:28;19.85;;;10.77;;
61840;SDS011;47773;53.174;6.614;2023-04-15T06:13:54;20.65;;;10.75;;
61840;SDS011;47773;53.174;6.614;2023-04-15T06:16:19;15.85;;;9.32;;
61840;SDS011;47773;53.174;6.614;2023-04-15T06:18:45;16.15;;;9.73;;
61840;SDS011;47773;53.174;6.614;2023-04-15T06:21:11;16.80;;;9.77;;
61840;SDS011;47773;53.174;6.614;2023-04-15T06:23:37;17.83;;;9.82;;
61840;SDS011;47773;53.174;6.614;2023-04-15T06:26:05;14.32;;;8.93;;
61840;SDS011;47773;53.174;6.614;2023-04-15T06:28:31;17.83;;;9.23;;
61840;SDS011;47773;53.174;6.614;2023-04-15T06:30:56;18.98;;;9.73;;
61840;SDS011;47773;53.174;6.614;2023-04-15T06:33:22;19.73;;;9.98;;
61840;SDS011;47773;53.174;6.614;2023-04-15T06:35:48;17.23;;;9.05;;
61840;SDS011;47773;53.174;6.614;2023-04-15T06:38:14;13.90;;;8.43;;
61840;SDS011;47773;53.174;6.614;2023-04-15T06:40:39;14.60;;;8.38;;
61840;SDS011;47773;53.174;6.614;2023-04-15T06:43:06;13.30;;;8.07;;
61840;SDS011;47773;53.174;6.614;2023-04-15T06:45:32;16.10;;;8.80;;
61840;SDS011;47773;53.174;6.614;2023-04-15T06:47:57;14.82;;;8.45;;
61840;SDS011;47773;53.174;6.614;2023-04-15T06:50:23;14.63;;;8.45;;
61840;SDS011;47773;53.174;6.614;2023-04-15T06:52:49;15.43;;;8.75;;
61840;SDS011;47773;53.174;6.614;2023-04-15T06:55:14;14.55;;;7.90;;
61840;SDS011;47773;53.174;6.614;2023-04-15T06:57:43;18.35;;;8.48;;
61840;SDS011;47773;53.174;6.614;2023-04-15T07:00:09;15.45;;;9.40;;
61840;SDS011;47773;53.174;6.614;2023-04-15T07:02:36;18.67;;;8.88;;
61840;SDS011;47773;53.174;6.614;2023-04-15T07:05:02;15.13;;;8.20;;
61840;SDS011;47773;53.174;6.614;2023-04-15T07:07:28;16.58;;;9.20;;
61840;SDS011;47773;53.174;6.614;2023-04-15T07:09:54;14.57;;;8.88;;
61840;SDS011;47773;53.174;6.614;2023-04-15T07:12:20;15.45;;;8.68;;
61840;SDS011;47773;53.174;6.614;2023-04-15T07:14:46;23.58;;;9.68;;
61840;SDS011;47773;53.174;6.614;2023-04-15T07:17:11;18.80;;;8.82;;
61840;SDS011;47773;53.174;6.614;2023-04-15T07:19:37;17.17;;;9.20;;
61840;SDS011;47773;53.174;6.614;2023-04-15T07:22:03;16.90;;;9.32;;
61840;SDS011;47773;53.174;6.614;2023-04-15T07:24:29;16.05;;;9.60;;
61840;SDS011;47773;53.174;6.614;2023-04-15T07:26:55;17.23;;;8.43;;
61840;SDS011;47773;53.174;6.614;2023-04-15T07:29:22;15.02;;;8.55;;
61840;SDS011;47773;53.174;6.614;2023-04-15T07:31:48;15.82;;;8.63;;
61840;SDS011;47773;53.174;6.614;2023-04-15T07:34:13;16.02;;;8.45;;
61840;SDS011;47773;53.174;6.614;2023-04-15T07:36:40;19.52;;;8.60;;
61840;SDS011;47773;53.174;6.614;2023-04-15T07:39:06;19.83;;;8.75;;
61840;SDS011;47773;53.174;6.614;2023-04-15T07:41:32;16.67;;;8.15;;
61840;SDS011;47773;53.174;6.614;2023-04-15T07:43:57;16.42;;;8.30;;
61840;SDS011;47773;53.174;6.614;2023-04-15T07:46:23;16.92;;;8.45;;
61840;SDS011;47773;53.174;6.614;2023-04-15T07:48:51;17.60;;;7.85;;
61840;SDS011;47773;53.174;6.614;2023-04-15T07:51:17;17.80;;;7.97;;
61840;SDS011;47773;53.174;6.614;2023-04-15T07:53:45;17.83;;;8.43;;
61840;SDS011;47773;53.174;6.614;2023-04-15T07:56:11;15.63;;;7.53;;
61840;SDS011;47773;53.174;6.614;2023-04-15T07:58:37;15.73;;;8.05;;
61840;SDS011;47773;53.174;6.614;2023-04-15T08:01:03;17.50;;;7.95;;
61840;SDS011;47773;53.174;6.614;2023-04-15T08:03:29;18.02;;;8.30;;
61840;SDS011;47773;53.174;6.614;2023-04-15T08:05:55;17.67;;;8.18;;
61840;SDS011;47773;53.174;6.614;2023-04-15T08:08:21;17.00;;;7.97;;
61840;SDS011;47773;53.174;6.614;2023-04-15T08:10:47;17.45;;;7.97;;
61840;SDS011;47773;53.174;6.614;2023-04-15T08:13:12;19.30;;;8.73;;
61840;SDS011;47773;53.174;6.614;2023-04-15T08:15:38;25.00;;;9.48;;
61840;SDS011;47773;53.174;6.614;2023-04-15T08:18:04;18.45;;;8.70;;
61840;SDS011;47773;53.174;6.614;2023-04-15T08:20:30;17.13;;;8.82;;
61840;SDS011;47773;53.174;6.614;2023-04-15T08:22:56;19.10;;;7.63;;
61840;SDS011;47773;53.174;6.614;2023-04-15T08:25:22;23.65;;;7.93;;
61840;SDS011;47773;53.174;6.614;2023-04-15T08:27:47;14.60;;;7.03;;
61840;SDS011;47773;53.174;6.614;2023-04-15T08:30:13;18.70;;;7.68;;
61840;SDS011;47773;53.174;6.614;2023-04-15T08:32:40;21.42;;;7.20;;
61840;SDS011;47773;53.174;6.614;2023-04-15T08:35:09;19.20;;;6.68;;
61840;SDS011;47773;53.174;6.614;2023-04-15T08:37:34;15.13;;;7.10;;
61840;SDS011;47773;53.174;6.614;2023-04-15T08:40:00;14.95;;;5.80;;
61840;SDS011;47773;53.174;6.614;2023-04-15T08:42:27;12.57;;;6.32;;
61840;SDS011;47773;53.174;6.614;2023-04-15T08:47:29;17.85;;;5.82;;
61840;SDS011;47773;53.174;6.614;2023-04-15T08:49:58;16.55;;;5.20;;
61840;SDS011;47773;53.174;6.614;2023-04-15T08:52:26;11.75;;;4.40;;
61840;SDS011;47773;53.174;6.614;2023-04-15T08:54:55;8.77;;;4.10;;
61840;SDS011;47773;53.174;6.614;2023-04-15T08:57:26;9.77;;;4.18;;
61840;SDS011;47773;53.174;6.614;2023-04-15T08:59:54;13.80;;;4.93;;
61840;SDS011;47773;53.174;6.614;2023-04-15T09:02:21;10.48;;;4.03;;
61840;SDS011;47773;53.174;6.614;2023-04-15T09:04:48;10.68;;;3.72;;
61840;SDS011;47773;53.174;6.614;2023-04-15T09:07:13;8.18;;;3.50;;
61840;SDS011;47773;53.174;6.614;2023-04-15T09:09:39;8.77;;;3.33;;
61840;SDS011;47773;53.174;6.614;2023-04-15T09:12:06;7.40;;;3.60;;
61840;SDS011;47773;53.174;6.614;2023-04-15T09:14:32;8.43;;;3.00;;
61840;SDS011;47773;53.174;6.614;2023-04-15T09:16:59;8.10;;;3.35;;
61840;SDS011;47773;53.174;6.614;2023-04-15T09:19:29;8.95;;;3.47;;
61840;SDS011;47773;53.174;6.614;2023-04-15T09:21:56;7.18;;;3.03;;
61840;SDS011;47773;53.174;6.614;2023-04-15T09:24:23;12.00;;;3.15;;
61840;SDS011;47773;53.174;6.614;2023-04-15T09:26:52;9.57;;;3.40;;
61840;SDS011;47773;53.174;6.614;2023-04-15T09:29:23;7.18;;;2.85;;
61840;SDS011;47773;53.174;6.614;2023-04-15T09:31:50;8.60;;;2.92;;
61840;SDS011;47773;53.174;6.614;2023-04-15T09:34:17;5.50;;;2.70;;
61840;SDS011;47773;53.174;6.614;2023-04-15T09:39:12;10.60;;;2.83;;
61840;SDS011;47773;53.174;6.614;2023-04-15T09:41:38;6.03;;;2.90;;
61840;SDS011;47773;53.174;6.614;2023-04-15T09:44:04;10.10;;;3.00;;
61840;SDS011;47773;53.174;6.614;2023-04-15T09:46:43;7.82;;;2.95;;
61840;SDS011;47773;53.174;6.614;2023-04-15T09:49:10;7.03;;;3.05;;
61840;SDS011;47773;53.174;6.614;2023-04-15T09:51:36;5.63;;;2.72;;
61840;SDS011;47773;53.174;6.614;2023-04-15T09:54:02;7.78;;;3.10;;
61840;SDS011;47773;53.174;6.614;2023-04-15T09:56:33;6.60;;;2.92;;
61840;SDS011;47773;53.174;6.614;2023-04-15T09:59:01;10.35;;;3.08;;
61840;SDS011;47773;53.174;6.614;2023-04-15T10:01:27;7.38;;;2.78;;
61840;SDS011;47773;53.174;6.614;2023-04-15T10:03:53;10.82;;;3.33;;
61840;SDS011;47773;53.174;6.614;2023-04-15T10:06:22;5.30;;;2.72;;
61840;SDS011;47773;53.174;6.614;2023-04-15T10:08:50;8.35;;;2.60;;
61840;SDS011;47773;53.174;6.614;2023-04-15T10:11:17;7.88;;;2.40;;
61840;SDS011;47773;53.174;6.614;2023-04-15T10:13:44;7.22;;;2.60;;
61840;SDS011;47773;53.174;6.614;2023-04-15T10:16:12;5.20;;;2.15;;
61840;SDS011;47773;53.174;6.614;2023-04-15T10:18:43;5.13;;;2.10;;
61840;SDS011;47773;53.174;6.614;2023-04-15T10:21:10;6.28;;;2.20;;
61840;SDS011;47773;53.174;6.614;2023-04-15T10:23:38;9.60;;;2.28;;
61840;SDS011;47773;53.174;6.614;2023-04-15T10:26:04;4.55;;;2.20;;
61840;SDS011;47773;53.174;6.614;2023-04-15T10:28:30;7.78;;;2.83;;
61840;SDS011;47773;53.174;6.614;2023-04-15T10:30:56;9.02;;;3.10;;
61840;SDS011;47773;53.174;6.614;2023-04-15T10:33:23;10.02;;;3.25;;
61840;SDS011;47773;53.174;6.614;2023-04-15T10:35:50;9.43;;;3.10;;
61840;SDS011;47773;53.174;6.614;2023-04-15T10:41:43;7.75;;;2.80;;
61840;SDS011;47773;53.174;6.614;2023-04-15T10:43:52;5.95;;;2.40;;
61840;SDS011;47773;53.174;6.614;2023-04-15T10:46:20;14.20;;;2.65;;
61840;SDS011;47773;53.174;6.614;2023-04-15T10:49:05;10.25;;;3.22;;
61840;SDS011;47773;53.174;6.614;2023-04-15T10:51:33;17.92;;;3.75;;
61840;SDS011;47773;53.174;6.614;2023-04-15T10:54:08;15.82;;;3.38;;
61840;SDS011;47773;53.174;6.614;2023-04-15T10:56:40;10.55;;;3.22;;
61840;SDS011;47773;53.174;6.614;2023-04-15T10:59:09;10.95;;;3.22;;
61840;SDS011;47773;53.174;6.614;2023-04-15T11:01:54;13.75;;;3.67;;
61840;SDS011;47773;53.174;6.614;2023-04-15T11:09:57;10.00;;;3.70;;
61840;SDS011;47773;53.174;6.614;2023-04-15T11:12:32;11.50;;;3.47;;
61840;SDS011;47773;53.174;6.614;2023-04-15T11:17:51;8.70;;;2.85;;
61840;SDS011;47773;53.174;6.614;2023-04-15T11:20:17;11.70;;;2.92;;
61840;SDS011;47773;53.174;6.614;2023-04-15T11:22:50;10.88;;;3.00;;
61840;SDS011;47773;53.174;6.614;2023-04-15T11:25:27;10.50;;;3.08;;
61840;SDS011;47773;53.174;6.614;2023-04-15T11:27:55;8.68;;;2.78;;
61840;SDS011;47773;53.174;6.614;2023-04-15T11:30:22;14.52;;;2.90;;
61840;SDS011;47773;53.174;6.614;2023-04-15T11:32:50;15.02;;;2.65;;
61840;SDS011;47773;53.174;6.614;2023-04-15T11:35:17;14.32;;;2.50;;
61840;SDS011;47773;53.174;6.614;2023-04-15T11:37:43;10.70;;;2.70;;
61840;SDS011;47773;53.174;6.614;2023-04-15T11:40:10;13.32;;;2.58;;
61840;SDS011;47773;53.174;6.614;2023-04-15T11:42:37;12.70;;;3.10;;
61840;SDS011;47773;53.174;6.614;2023-04-15T11:45:09;17.13;;;3.90;;
61840;SDS011;47773;53.174;6.614;2023-04-15T11:47:37;18.08;;;3.17;;
61840;SDS011;47773;53.174;6.614;2023-04-15T11:50:19;10.55;;;3.13;;
61840;SDS011;47773;53.174;6.614;2023-04-15T11:52:56;14.98;;;3.15;;
61840;SDS011;47773;53.174;6.614;2023-04-15T11:55:23;14.80;;;3.00;;
61840;SDS011;47773;53.174;6.614;2023-04-15T11:58:04;11.07;;;2.65;;
61840;SDS011;47773;53.174;6.614;2023-04-15T12:00:32;11.65;;;2.95;;
61840;SDS011;47773;53.174;6.614;2023-04-15T12:03:18;17.67;;;3.95;;
61840;SDS011;47773;53.174;6.614;2023-04-15T12:06:04;15.18;;;3.38;;
61840;SDS011;47773;53.174;6.614;2023-04-15T12:13:58;13.90;;;2.80;;
61840;SDS011;47773;53.174;6.614;2023-04-15T12:16:28;14.70;;;3.05;;
61840;SDS011;47773;53.174;6.614;2023-04-15T12:18:55;11.30;;;2.20;;
61840;SDS011;47773;53.174;6.614;2023-04-15T12:21:23;15.60;;;2.58;;
61840;SDS011;47773;53.174;6.614;2023-04-15T12:23:51;11.23;;;2.53;;
61840;SDS011;47773;53.174;6.614;2023-04-15T12:26:28;11.95;;;3.40;;
61840;SDS011;47773;53.174;6.614;2023-04-15T12:31:27;23.40;;;3.00;;
61840;SDS011;47773;53.174;6.614;2023-04-15T12:33:54;10.20;;;2.47;;
61840;SDS011;47773;53.174;6.614;2023-04-15T12:36:20;12.93;;;3.13;;
61840;SDS011;47773;53.174;6.614;2023-04-15T12:38:47;10.57;;;3.10;;
61840;SDS011;47773;53.174;6.614;2023-04-15T12:41:12;10.82;;;2.60;;
61840;SDS011;47773;53.174;6.614;2023-04-15T12:43:38;19.25;;;3.03;;
61840;SDS011;47773;53.174;6.614;2023-04-15T12:46:03;12.27;;;2.65;;
61840;SDS011;47773;53.174;6.614;2023-04-15T12:48:29;11.35;;;2.50;;
61840;SDS011;47773;53.174;6.614;2023-04-15T12:50:55;14.60;;;2.50;;
61840;SDS011;47773;53.174;6.614;2023-04-15T12:53:21;13.73;;;2.20;;
61840;SDS011;47773;53.174;6.614;2023-04-15T12:55:47;13.68;;;2.15;;
61840;SDS011;47773;53.174;6.614;2023-04-15T12:58:12;9.13;;;2.28;;
61840;SDS011;47773;53.174;6.614;2023-04-15T13:00:38;14.25;;;2.55;;
61840;SDS011;47773;53.174;6.614;2023-04-15T13:03:04;27.52;;;2.92;;
61840;SDS011;47773;53.174;6.614;2023-04-15T13:05:29;14.43;;;2.75;;
61840;SDS011;47773;53.174;6.614;2023-04-15T13:07:55;17.17;;;2.97;;
61840;SDS011;47773;53.174;6.614;2023-04-15T13:10:21;7.70;;;1.95;;
61840;SDS011;47773;53.174;6.614;2023-04-15T13:12:49;18.33;;;2.25;;
61840;SDS011;47773;53.174;6.614;2023-04-15T13:15:17;12.85;;;1.90;;
61840;SDS011;47773;53.174;6.614;2023-04-15T13:17:45;12.27;;;2.10;;
61840;SDS011;47773;53.174;6.614;2023-04-15T13:20:11;18.83;;;2.50;;
61840;SDS011;47773;53.174;6.614;2023-04-15T13:22:36;15.88;;;2.58;;
61840;SDS011;47773;53.174;6.614;2023-04-15T13:25:02;15.20;;;2.40;;
61840;SDS011;47773;53.174;6.614;2023-04-15T13:27:28;15.40;;;2.60;;
61840;SDS011;47773;53.174;6.614;2023-04-15T13:29:53;19.92;;;2.95;;
61840;SDS011;47773;53.174;6.614;2023-04-15T13:32:19;12.57;;;2.88;;
61840;SDS011;47773;53.174;6.614;2023-04-15T13:34:45;15.43;;;3.33;;
61840;SDS011;47773;53.174;6.614;2023-04-15T13:37:10;20.48;;;3.92;;
61840;SDS011;47773;53.174;6.614;2023-04-15T13:39:36;15.43;;;3.25;;
61840;SDS011;47773;53.174;6.614;2023-04-15T13:42:02;12.65;;;2.97;;
61840;SDS011;47773;53.174;6.614;2023-04-15T13:44:27;16.65;;;2.97;;
61840;SDS011;47773;53.174;6.614;2023-04-15T13:46:53;20.33;;;3.47;;
61840;SDS011;47773;53.174;6.614;2023-04-15T13:49:19;15.18;;;2.60;;
61840;SDS011;47773;53.174;6.614;2023-04-15T13:51:45;12.38;;;2.13;;
61840;SDS011;47773;53.174;6.614;2023-04-15T13:54:10;17.80;;;3.08;;
61840;SDS011;47773;53.174;6.614;2023-04-15T13:56:36;17.55;;;3.10;;
61840;SDS011;47773;53.174;6.614;2023-04-15T13:59:02;19.38;;;2.70;;
61840;SDS011;47773;53.174;6.614;2023-04-15T14:01:28;15.32;;;2.60;;
61840;SDS011;47773;53.174;6.614;2023-04-15T14:03:54;16.88;;;2.80;;
61840;SDS011;47773;53.174;6.614;2023-04-15T14:06:20;13.23;;;3.00;;
61840;SDS011;47773;53.174;6.614;2023-04-15T14:08:46;13.43;;;2.70;;
61840;SDS011;47773;53.174;6.614;2023-04-15T14:11:11;16.25;;;4.05;;
61840;SDS011;47773;53.174;6.614;2023-04-15T14:13:37;17.15;;;3.85;;
61840;SDS011;47773;53.174;6.614;2023-04-15T14:16:03;17.55;;;3.70;;
61840;SDS011;47773;53.174;6.614;2023-04-15T14:18:29;13.85;;;3.13;;
61840;SDS011;47773;53.174;6.614;2023-04-15T14:20:55;17.58;;;2.97;;
61840;SDS011;47773;53.174;6.614;2023-04-15T14:23:21;15.25;;;3.83;;
61840;SDS011;47773;53.174;6.614;2023-04-15T14:25:47;23.30;;;3.25;;
61840;SDS011;47773;53.174;6.614;2023-04-15T14:28:13;18.50;;;3.30;;
61840;SDS011;47773;53.174;6.614;2023-04-15T14:30:39;14.98;;;3.47;;
61840;SDS011;47773;53.174;6.614;2023-04-15T14:33:04;19.67;;;3.67;;
61840;SDS011;47773;53.174;6.614;2023-04-15T14:35:30;20.05;;;3.45;;
61840;SDS011;47773;53.174;6.614;2023-04-15T14:38:02;18.83;;;3.45;;
61840;SDS011;47773;53.174;6.614;2023-04-15T14:40:29;18.92;;;3.00;;
61840;SDS011;47773;53.174;6.614;2023-04-15T14:42:55;15.48;;;3.22;;
61840;SDS011;47773;53.174;6.614;2023-04-15T14:45:21;16.60;;;3.22;;
61840;SDS011;47773;53.174;6.614;2023-04-15T14:47:47;17.17;;;4.10;;
61840;SDS011;47773;53.174;6.614;2023-04-15T14:50:12;20.85;;;4.05;;
61840;SDS011;47773;53.174;6.614;2023-04-15T14:52:38;21.05;;;3.58;;
61840;SDS011;47773;53.174;6.614;2023-04-15T14:55:07;23.77;;;4.13;;
61840;SDS011;47773;53.174;6.614;2023-04-15T14:57:37;13.90;;;3.30;;